Time;durP1;ratioP1;P1;durP2;ratioP2;P2;SDS_P1;SDS_P2;PMS_P1;PMS_P2;Temp;Humidity;BMP_temperature;BMP_pressure;BME280_temperature;BME280_humidity;BME280_pressure;Samples;Min_cycle;Max_cycle;Signal;HPM_P1;HPM_P2
2021/05/25 00:02:02;;;;;;;29.10;3.50;;;;;;;10.71;100.00;101735.09;5052679;28;20036;-63
2021/05/25 00:04:28;;;;;;;33.30;4.13;;;;;;;10.74;100.00;101740.09;5052570;28;20395;-64
2021/05/25 00:06:54;;;;;;;13.98;4.22;;;;;;;10.77;100.00;101739.69;5052567;28;20044;-63
2021/05/25 00:09:20;;;;;;;25.58;3.55;;;;;;;10.79;100.00;101740.31;5052459;28;20047;-63
2021/05/25 00:11:45;;;;;;;27.08;5.05;;;;;;;10.82;100.00;101737.13;5052498;28;20557;-64
2021/05/25 00:14:11;;;;;;;33.63;4.05;;;;;;;10.84;100.00;101743.19;5052238;28;20041;-63
2021/05/25 00:16:38;;;;;;;24.85;4.72;;;;;;;10.85;100.00;101747.59;5052426;28;20517;-65
2021/05/25 00:19:04;;;;;;;21.70;3.15;;;;;;;10.87;100.00;101745.47;5052373;28;20037;-64
2021/05/25 00:21:30;;;;;;;24.95;3.88;;;;;;;10.88;100.00;101745.25;5052274;28;20044;-64
2021/05/25 00:23:55;;;;;;;26.20;3.97;;;;;;;10.91;100.00;101757.63;5051917;28;20057;-64
2021/05/25 00:26:27;;;;;;;23.02;3.78;;;;;;;10.92;100.00;101747.53;5052231;28;20037;-63
2021/05/25 00:28:52;;;;;;;27.75;3.92;;;;;;;10.93;100.00;101750.03;5052035;28;20033;-64
2021/05/25 00:31:18;;;;;;;18.85;2.58;;;;;;;10.93;100.00;101752.78;5052067;28;20044;-63
2021/05/25 00:33:44;;;;;;;24.38;3.75;;;;;;;10.95;100.00;101753.41;5051930;28;20086;-63
2021/05/25 00:36:11;;;;;;;24.00;2.83;;;;;;;10.95;100.00;101760.78;5052020;28;20146;-64
2021/05/25 00:38:37;;;;;;;22.65;3.75;;;;;;;10.94;100.00;101757.22;5051811;28;20396;-64
2021/05/25 00:41:04;;;;;;;19.08;3.53;;;;;;;10.95;100.00;101760.78;5051752;28;20044;-64
2021/05/25 00:43:29;;;;;;;19.05;3.30;;;;;;;10.95;100.00;101747.97;5051774;28;20376;-64
2021/05/25 00:45:56;;;;;;;17.15;2.47;;;;;;;10.94;100.00;101757.22;5051756;28;20502;-64
2021/05/25 00:48:21;;;;;;;22.08;2.95;;;;;;;10.94;100.00;101754.47;5051718;28;20044;-64
2021/05/25 00:50:47;;;;;;;11.85;2.40;;;;;;;11.00;100.00;101761.78;5051597;28;20460;-64
2021/05/25 00:53:13;;;;;;;13.95;2.95;;;;;;;10.96;100.00;101760.56;5050925;28;20458;-64
2021/05/25 00:55:41;;;;;;;20.15;3.05;;;;;;;10.95;100.00;101761.63;5051535;28;20119;-64
2021/05/25 00:58:09;;;;;;;15.27;2.65;;;;;;;10.94;100.00;101761.84;5051743;28;20548;-64
2021/05/25 01:00:41;;;;;;;19.50;3.03;;;;;;;10.94;100.00;101757.22;5051565;28;20037;-64
2021/05/25 01:03:09;;;;;;;20.60;3.30;;;;;;;10.94;100.00;101768.16;5051567;28;20033;-64
2021/05/25 01:05:35;;;;;;;14.48;2.80;;;;;;;10.97;100.00;101772.34;5051383;28;20044;-64
2021/05/25 01:08:01;;;;;;;18.27;2.97;;;;;;;10.94;100.00;101773.63;5051381;28;20037;-64
2021/05/25 01:10:35;;;;;;;21.40;3.47;;;;;;;10.94;100.00;101776.34;5051294;28;20037;-64
2021/05/25 01:13:05;;;;;;;;;;;;;;;10.94;100.00;101768.16;5051679;28;20491;-64
2021/05/25 01:15:32;;;;;;;18.40;3.10;;;;;;;10.93;100.00;101766.44;5051220;28;19921;-64
2021/05/25 01:17:59;;;;;;;14.90;2.60;;;;;;;10.92;100.00;101775.72;5051381;28;20035;-63
2021/05/25 01:20:29;;;;;;;22.50;4.07;;;;;;;10.90;100.00;101772.38;5051208;28;20529;-64
2021/05/25 01:22:55;;;;;;;20.10;2.83;;;;;;;10.88;100.00;101775.31;5050526;28;20060;-64
2021/05/25 01:25:22;;;;;;;23.10;4.25;;;;;;;10.88;100.00;101774.47;5051045;28;20088;-63
2021/05/25 01:27:58;;;;;;;23.23;3.65;;;;;;;10.86;100.00;101784.81;5051192;28;20106;-63
2021/05/25 01:30:24;;;;;;;;;;;;;;;10.85;100.00;101780.41;5051427;28;20036;-63
2021/05/25 01:32:52;;;;;;;16.52;2.65;;;;;;;10.84;100.00;101773.25;5050759;28;20007;-64
2021/05/25 01:35:19;;;;;;;13.10;3.05;;;;;;;10.82;100.00;101781.69;5050904;28;20044;-63
2021/05/25 01:37:44;;;;;;;22.17;4.10;;;;;;;10.80;100.00;101780.22;5050985;28;20029;-63
2021/05/25 01:40:11;;;;;;;20.60;4.15;;;;;;;10.79;100.00;101786.75;5050899;28;20114;-63
2021/05/25 01:42:37;;;;;;;15.38;3.10;;;;;;;10.77;100.00;101772.47;5050772;28;20123;-64
2021/05/25 01:45:06;;;;;;;24.77;3.33;;;;;;;10.76;100.00;101781.72;5050848;28;20132;-64
2021/05/25 01:47:32;;;;;;;25.33;3.97;;;;;;;10.75;100.00;101782.78;5050822;28;20055;-64
2021/05/25 01:50:11;;;;;;;25.40;4.30;;;;;;;10.71;100.00;101793.31;5050574;28;20394;-63
2021/05/25 01:52:56;;;;;;;22.17;3.65;;;;;;;10.70;100.00;101794.38;5050857;28;20048;-64
2021/05/25 01:55:38;;;;;;;23.98;4.13;;;;;;;10.68;100.00;101790.19;5050767;28;20094;-63
2021/05/25 01:58:22;;;;;;;22.80;4.13;;;;;;;10.68;100.00;101798.38;5050687;28;20094;-63
2021/05/25 02:00:54;;;;;;;21.83;5.00;;;;;;;10.67;100.00;101804.91;5050729;28;20032;-64
2021/05/25 02:03:20;;;;;;;31.05;5.07;;;;;;;10.66;100.00;101803.22;5050699;28;20398;-63
2021/05/25 02:05:46;;;;;;;24.50;4.28;;;;;;;10.66;100.00;101811.44;5054713;28;20400;-63
2021/05/25 02:08:13;;;;;;;19.88;4.35;;;;;;;10.65;100.00;101813.31;5054755;28;20080;-63
2021/05/25 02:10:41;;;;;;;25.17;4.43;;;;;;;10.67;100.00;101804.91;5054646;28;20053;-64
2021/05/25 02:13:13;;;;;;;24.15;4.07;;;;;;;10.66;100.00;101805.97;5054725;28;20495;-64
2021/05/25 02:15:41;;;;;;;17.88;3.60;;;;;;;10.66;100.00;101803.22;5054564;28;20032;-63
2021/05/25 02:18:15;;;;;;;29.48;4.38;;;;;;;10.65;100.00;101807.03;5054541;28;20037;-64
2021/05/25 02:20:42;;;;;;;22.65;4.32;;;;;;;10.65;100.00;101818.78;5054768;28;20025;-64
2021/05/25 02:23:08;;;;;;;26.05;4.38;;;;;;;10.64;100.00;101810.81;5052800;28;20414;-64
2021/05/25 02:25:34;;;;;;;31.10;5.90;;;;;;;10.65;100.00;101812.47;5054439;28;20033;-64
2021/05/25 02:28:02;;;;;;;29.98;5.32;;;;;;;10.66;100.00;101814.16;5054649;28;20501;-63
2021/05/25 02:30:28;;;;;;;29.85;5.05;;;;;;;10.67;100.00;101816.66;5054319;28;20072;-63
2021/05/25 02:32:58;;;;;;;20.98;3.58;;;;;;;10.69;100.00;101816.44;5054190;28;20036;-64
2021/05/25 02:35:24;;;;;;;37.38;4.47;;;;;;;10.70;100.00;101818.13;5054242;28;20032;-64
2021/05/25 02:37:49;;;;;;;29.90;4.80;;;;;;;10.71;100.00;101822.53;5054342;28;20440;-64
2021/05/25 02:40:16;;;;;;;20.33;3.92;;;;;;;10.73;100.00;101823.13;5054051;28;20025;-64
2021/05/25 02:42:41;;;;;;;31.73;4.32;;;;;;;10.75;100.00;101823.75;5053985;28;20090;-64
2021/05/25 02:45:07;;;;;;;22.73;4.80;;;;;;;10.77;100.00;101827.97;5054136;28;20041;-64
2021/05/25 02:47:33;;;;;;;28.60;4.05;;;;;;;10.78;100.00;101823.34;5054173;28;20064;-64
2021/05/25 02:50:06;;;;;;;21.33;3.55;;;;;;;10.80;100.00;101826.69;5054031;28;20499;-64
2021/05/25 02:52:40;;;;;;;27.13;4.97;;;;;;;10.81;100.00;101821.00;5053944;28;20105;-63
2021/05/25 02:55:09;;;;;;;23.38;4.13;;;;;;;10.81;100.00;101822.91;5054004;28;20068;-64
2021/05/25 02:57:36;;;;;;;29.23;4.45;;;;;;;10.82;100.00;101835.50;5052578;28;20095;-64
2021/05/25 03:00:33;;;;;;;27.35;4.88;;;;;;;10.82;100.00;101830.03;5053793;28;20033;-64
2021/05/25 03:02:59;;;;;;;26.88;5.32;;;;;;;10.83;100.00;101837.19;5053006;28;20037;-63
2021/05/25 03:05:25;;;;;;;31.77;5.75;;;;;;;10.83;100.00;101839.91;5053720;28;20604;-63
2021/05/25 03:07:56;;;;;;;24.13;5.50;;;;;;;10.83;100.00;101839.91;5053740;28;20033;-63
2021/05/25 03:10:24;;;;;;;24.38;5.70;;;;;;;10.84;100.00;101838.84;5053515;28;20036;-64
2021/05/25 03:12:50;;;;;;;30.90;5.20;;;;;;;10.84;100.00;101847.06;5053619;28;20144;-64
2021/05/25 03:15:19;;;;;;;18.95;4.03;;;;;;;10.85;100.00;101846.00;5052768;28;20483;-64
2021/05/25 03:17:45;;;;;;;29.27;5.85;;;;;;;10.86;100.00;101847.66;5053437;28;20071;-64
2021/05/25 03:20:13;;;;;;;19.92;4.43;;;;;;;10.84;100.00;101844.31;5053389;28;20079;-64
2021/05/25 03:22:39;;;;;;;24.42;4.65;;;;;;;10.85;100.00;101848.72;5053460;28;20028;-64
2021/05/25 03:25:07;;;;;;;25.08;4.35;;;;;;;10.83;100.00;101859.03;5053195;28;20049;-64
2021/05/25 03:27:32;;;;;;;30.88;4.22;;;;;;;10.83;100.00;101859.88;5053386;28;20055;-65
2021/05/25 03:29:58;;;;;;;23.00;4.43;;;;;;;10.82;100.00;101851.91;5053309;28;20475;-64
2021/05/25 03:32:23;;;;;;;27.38;3.97;;;;;;;10.82;100.00;101860.94;5053159;28;20032;-64
2021/05/25 03:34:49;;;;;;;25.83;4.28;;;;;;;10.81;100.00;101855.69;5051633;28;20083;-63
2021/05/25 03:37:15;;;;;;;24.60;4.32;;;;;;;10.80;100.00;101864.94;5053115;28;20037;-63
2021/05/25 03:39:40;;;;;;;33.38;4.57;;;;;;;10.79;100.00;101868.75;5053072;28;20445;-64
2021/05/25 03:42:06;;;;;;;31.27;4.07;;;;;;;10.76;100.00;101874.63;5053090;28;20047;-64
2021/05/25 03:44:32;;;;;;;24.55;4.57;;;;;;;10.75;100.00;101872.94;5052829;28;20445;-63
2021/05/25 03:46:58;;;;;;;29.25;5.43;;;;;;;10.74;100.00;101868.53;5052968;28;20056;-63
2021/05/25 03:49:24;;;;;;;26.35;4.30;;;;;;;10.75;100.00;101870.22;5052894;28;20033;-64
2021/05/25 03:51:49;;;;;;;22.67;5.05;;;;;;;10.73;100.00;101869.59;5051453;28;20044;-64
2021/05/25 03:54:26;;;;;;;18.25;3.78;;;;;;;10.72;100.00;101862.47;5052630;28;20056;-64
2021/05/25 03:56:58;;;;;;;27.55;5.32;;;;;;;10.70;100.00;101867.31;5052733;28;20041;-64
2021/05/25 03:59:24;;;;;;;23.50;5.15;;;;;;;10.68;100.00;101880.34;5052846;28;20460;-63
2021/05/25 04:01:52;;;;;;;26.33;4.70;;;;;;;10.68;100.00;101880.34;5052640;28;20036;-64
2021/05/25 04:04:18;;;;;;;31.65;6.25;;;;;;;10.68;100.00;101883.91;5052600;28;20029;-64
2021/05/25 04:06:44;;;;;;;24.65;5.15;;;;;;;10.67;100.00;101884.13;5052924;28;20041;-64
2021/05/25 04:09:10;;;;;;;26.50;5.78;;;;;;;10.70;100.00;101891.91;5052477;28;20045;-63
2021/05/25 04:11:36;;;;;;;26.67;4.70;;;;;;;10.69;100.00;101895.69;5052317;28;20033;-63
2021/05/25 04:14:04;;;;;;;24.20;4.75;;;;;;;10.70;100.00;101898.19;5052514;28;20047;-64
2021/05/25 04:16:30;;;;;;;26.77;5.40;;;;;;;10.71;100.00;101893.56;5052514;28;20068;-64
2021/05/25 04:18:55;;;;;;;29.42;5.43;;;;;;;10.71;100.00;101907.22;5052315;28;20052;-64
2021/05/25 04:21:21;;;;;;;29.17;6.03;;;;;;;10.72;100.00;101900.72;5052350;28;20422;-63
2021/05/25 04:23:47;;;;;;;26.13;6.03;;;;;;;10.74;100.00;101904.06;5051968;28;20052;-63
2021/05/25 04:26:12;;;;;;;24.52;5.22;;;;;;;10.72;100.00;101907.00;5052049;28;20040;-63
2021/05/25 04:28:38;;;;;;;27.85;6.28;;;;;;;10.74;100.00;101904.06;5052047;28;20041;-63
2021/05/25 04:31:04;;;;;;;34.50;6.88;;;;;;;10.74;100.00;101915.81;5051887;28;20037;-64
2021/05/25 04:33:29;;;;;;;30.88;5.03;;;;;;;10.74;100.00;101921.28;5052227;28;20044;-64
2021/05/25 04:35:55;;;;;;;30.27;6.28;;;;;;;10.75;100.00;101927.59;5052073;28;20087;-64
2021/05/25 04:38:21;;;;;;;22.40;5.38;;;;;;;10.75;100.00;101931.16;5051971;28;20037;-64
2021/05/25 04:40:47;;;;;;;20.92;5.35;;;;;;;10.74;100.00;101932.22;5051949;28;20037;-64
2021/05/25 04:43:13;;;;;;;21.90;4.07;;;;;;;10.76;100.00;101934.75;5052009;28;20040;-64
2021/05/25 04:45:41;;;;;;;21.42;4.13;;;;;;;10.76;100.00;101929.28;5051948;28;20051;-65
2021/05/25 04:48:08;;;;;;;28.42;5.88;;;;;;;10.76;100.00;101934.75;5051803;28;20048;-64
2021/05/25 04:50:34;;;;;;;24.48;4.75;;;;;;;10.75;100.00;101933.06;5051634;28;20037;-63
2021/05/25 04:53:00;;;;;;;21.13;5.40;;;;;;;10.74;100.00;101929.50;5051710;28;20053;-64
2021/05/25 04:55:26;;;;;;;20.40;4.40;;;;;;;10.75;100.00;101941.25;5051626;28;20412;-63
2021/05/25 04:57:52;;;;;;;29.90;5.50;;;;;;;10.76;100.00;101945.66;5051754;28;20060;-64
2021/05/25 05:00:22;;;;;;;24.50;5.57;;;;;;;10.74;100.00;101936.84;5051531;28;20029;-64
2021/05/25 05:02:48;;;;;;;25.20;5.97;;;;;;;10.74;100.00;101934.13;5051348;28;20033;-63
2021/05/25 05:05:14;;;;;;;25.08;4.70;;;;;;;10.73;100.00;101940.63;5051525;28;20045;-64
2021/05/25 05:07:41;;;;;;;29.80;6.88;;;;;;;10.72;100.00;101952.63;5051588;28;20036;-64
2021/05/25 05:10:07;;;;;;;30.23;6.18;;;;;;;10.73;100.00;101957.03;5051520;28;20049;-64
2021/05/25 05:12:33;;;;;;;23.20;5.00;;;;;;;10.75;100.00;101965.84;5051555;28;20033;-64
2021/05/25 05:14:59;;;;;;;23.30;4.57;;;;;;;10.76;100.00;101973.00;5051718;28;20497;-64
2021/05/25 05:17:27;;;;;;;29.70;6.60;;;;;;;10.76;100.00;101973.00;5051509;28;20037;-64
2021/05/25 05:19:53;;;;;;;28.67;7.18;;;;;;;10.78;100.00;101976.38;5051329;28;20367;-64
2021/05/25 05:22:20;;;;;;;27.33;5.90;;;;;;;10.79;100.00;101964.41;5051282;28;20037;-63
2021/05/25 05:24:46;;;;;;;25.73;4.97;;;;;;;10.79;100.00;101972.59;5050989;28;20053;-64
2021/05/25 05:27:12;;;;;;;25.58;5.95;;;;;;;10.80;100.00;101971.53;5051574;28;20486;-64
2021/05/25 05:29:38;;;;;;;29.88;5.60;;;;;;;10.81;100.00;101981.41;5051139;28;20029;-64
2021/05/25 05:32:04;;;;;;;22.85;6.47;;;;;;;10.81;100.00;101970.47;5051365;28;20039;-64
2021/05/25 05:34:30;;;;;;;28.67;5.35;;;;;;;10.82;100.00;101981.19;5051190;28;20052;-64
2021/05/25 05:36:57;;;;;;;27.10;5.75;;;;;;;10.86;100.00;101984.31;5051215;28;20043;-65
2021/05/25 05:39:23;;;;;;;30.50;5.75;;;;;;;10.91;100.00;101981.78;5050582;28;20044;-63
2021/05/25 05:41:49;;;;;;;24.33;5.55;;;;;;;10.95;100.00;101983.03;5051070;28;20025;-64
2021/05/25 05:44:14;;;;;;;23.52;6.55;;;;;;;10.99;100.00;101989.75;5050978;28;20044;-64
2021/05/25 05:46:43;;;;;;;25.23;5.13;;;;;;;11.04;100.00;101995.38;5051338;28;20047;-64
2021/05/25 05:49:09;;;;;;;35.03;6.32;;;;;;;11.10;100.00;101994.50;5051124;28;20041;-63
2021/05/25 05:51:35;;;;;;;23.48;6.63;;;;;;;11.12;100.00;101989.69;5050985;28;20514;-63
2021/05/25 05:54:00;;;;;;;23.92;5.95;;;;;;;11.18;100.00;101993.44;5050789;28;20048;-64
2021/05/25 05:56:27;;;;;;;27.10;5.47;;;;;;;11.20;100.00;101983.13;5050874;28;20458;-64
2021/05/25 05:58:53;;;;;;;28.13;6.28;;;;;;;11.22;100.00;101988.38;5050846;28;20049;-64
2021/05/25 06:01:19;;;;;;;30.90;4.72;;;;;;;11.23;100.00;101995.50;5051189;28;20063;-64
2021/05/25 06:03:45;;;;;;;27.10;5.03;;;;;;;11.23;100.00;101995.50;5050849;28;20043;-64
2021/05/25 06:06:11;;;;;;;23.13;4.72;;;;;;;11.20;100.00;101993.22;5051027;28;20044;-63
2021/05/25 06:08:38;;;;;;;32.88;6.47;;;;;;;11.20;100.00;102006.91;5050795;28;20033;-63
2021/05/25 06:11:04;;;;;;;27.48;5.30;;;;;;;11.20;100.00;102006.91;5050996;28;20456;-64
2021/05/25 06:13:30;;;;;;;27.08;6.43;;;;;;;11.17;100.00;102003.53;5050725;28;20029;-64
2021/05/25 06:15:59;;;;;;;24.60;5.38;;;;;;;11.17;100.00;102011.75;5050813;28;20037;-63
2021/05/25 06:18:25;;;;;;;24.42;6.03;;;;;;;11.18;100.00;102005.22;5050926;28;20033;-63
2021/05/25 06:20:51;;;;;;;28.13;5.85;;;;;;;11.17;100.00;102014.47;5050784;28;20048;-63
2021/05/25 06:23:17;;;;;;;21.88;5.35;;;;;;;11.17;100.00;102009.00;5050422;28;20395;-63
2021/05/25 06:25:42;;;;;;;27.27;5.70;;;;;;;11.15;100.00;102016.59;5050656;28;20059;-64
2021/05/25 06:28:08;;;;;;;22.95;4.38;;;;;;;11.17;100.00;102019.94;5050552;28;20452;-63
2021/05/25 06:30:35;;;;;;;28.95;6.47;;;;;;;11.18;100.00;102027.09;5050341;28;20032;-64
2021/05/25 06:33:00;;;;;;;22.63;5.30;;;;;;;11.18;100.00;102027.09;5050389;28;20041;-64
2021/05/25 06:35:27;;;;;;;25.63;5.25;;;;;;;11.22;100.00;102027.50;5050440;28;20372;-63
2021/05/25 06:37:52;;;;;;;26.67;5.65;;;;;;;11.24;100.00;102027.28;5050529;28;20040;-64
2021/05/25 06:40:18;;;;;;;32.60;5.78;;;;;;;11.27;100.00;102040.50;5050416;28;20368;-64
2021/05/25 06:42:44;;;;;;;22.63;5.50;;;;;;;11.32;100.00;102040.72;5050193;28;20125;-64
2021/05/25 06:45:11;;;;;;;22.08;6.38;;;;;;;11.38;100.00;102031.63;5050212;28;20036;-64
2021/05/25 06:47:38;;;;;;;24.92;5.25;;;;;;;11.43;100.00;102034.53;5050574;28;20088;-63
2021/05/25 06:50:09;;;;;;;26.25;5.65;;;;;;;11.48;100.00;102042.94;5048793;28;20114;-64
2021/05/25 06:52:35;;;;;;;27.58;5.78;;;;;;;11.57;100.00;102051.72;5053613;28;20041;-64
2021/05/25 06:55:03;;;;;;;29.45;5.53;;;;;;;11.64;100.00;102045.19;5054092;28;20037;-64
2021/05/25 06:57:29;;;;;;;26.90;5.75;;;;;;;11.70;100.00;102052.50;5053998;28;20041;-64
2021/05/25 06:59:55;;;;;;;23.48;4.88;;;;;;;11.77;100.00;102053.28;5053810;28;20033;-64
2021/05/25 07:02:25;;;;;;;21.92;5.60;;;;;;;11.80;100.00;102051.19;5053802;28;20040;-63
2021/05/25 07:04:52;;;;;;;19.67;4.60;;;;;;;11.80;100.00;102046.56;5053566;28;20040;-63
2021/05/25 07:07:17;;;;;;;27.80;5.60;;;;;;;11.85;100.00;102059.59;5053761;28;20029;-63
2021/05/25 07:09:43;;;;;;;17.88;4.40;;;;;;;11.89;100.00;102050.72;5053674;28;20509;-63
2021/05/25 07:12:10;;;;;;;22.38;4.95;;;;;;;11.95;100.00;102054.44;5053724;28;20029;-64
2021/05/25 07:14:35;;;;;;;19.13;4.22;;;;;;;12.00;100.00;102051.91;5053553;28;20442;-63
2021/05/25 07:17:02;;;;;;;14.10;3.30;;;;;;;11.97;100.00;102042.22;5053586;28;20033;-64
2021/05/25 07:19:27;;;;;;;16.27;3.92;;;;;;;12.05;100.00;102041.13;5053430;28;20454;-64
2021/05/25 07:21:53;;;;;;;24.38;5.32;;;;;;;12.05;100.00;102046.59;5053642;28;20111;-64
2021/05/25 07:24:19;;;;;;;12.50;3.10;;;;;;;12.04;100.00;102053.13;5053112;28;20049;-64
2021/05/25 07:26:45;;;;;;;18.13;3.92;;;;;;;12.04;100.00;102047.66;5053423;28;20045;-64
2021/05/25 07:29:10;;;;;;;18.13;4.63;;;;;;;12.10;100.00;102052.25;5053651;28;20083;-64
2021/05/25 07:31:36;;;;;;;20.50;4.75;;;;;;;12.12;100.00;102063.81;5053413;28;20044;-64
2021/05/25 07:34:02;;;;;;;18.88;4.22;;;;;;;12.16;100.00;102054.09;5053145;28;20076;-64
2021/05/25 07:36:28;;;;;;;15.45;2.50;;;;;;;12.19;100.00;102064.59;5057470;28;20054;-63
2021/05/25 07:38:54;;;;;;;14.68;3.60;;;;;;;12.21;100.00;102054.25;5058589;28;20033;-64
2021/05/25 07:41:19;;;;;;;13.57;2.92;;;;;;;12.25;100.00;102052.75;5052856;28;20223;-66
2021/05/25 07:43:45;;;;;;;16.52;3.28;;;;;;;12.33;100.00;102062.59;5085012;28;20394;-65
2021/05/25 07:46:12;;;;;;;8.43;2.72;;;;;;;12.52;100.00;102071.72;5065819;28;20047;-65
2021/05/25 07:48:38;;;;;;;16.30;2.80;;;;;;;12.64;100.00;102064.41;5060854;28;20037;-65
2021/05/25 07:51:04;;;;;;;21.10;3.53;;;;;;;12.62;100.00;102069.28;5072612;28;20033;-67
2021/05/25 07:53:30;;;;;;;13.57;2.38;;;;;;;12.55;100.00;102060.28;5071652;28;20494;-64
2021/05/25 07:55:56;;;;;;;11.25;2.33;;;;;;;12.45;100.00;102066.25;5061821;28;20037;-65
2021/05/25 07:58:23;;;;;;;17.88;3.47;;;;;;;12.52;100.00;102082.66;5071975;28;20040;-65
2021/05/25 08:00:48;;;;;;;10.90;2.67;;;;;;;12.61;100.00;102075.81;5070294;28;20039;-64
2021/05/25 08:03:16;;;;;;;13.43;2.72;;;;;;;12.77;100.00;102077.16;5071710;28;20398;-65
2021/05/25 08:05:43;;;;;;;9.60;2.72;;;;;;;12.85;100.00;102072.22;5077940;28;20553;-66
2021/05/25 08:08:09;;;;;;;8.43;2.58;;;;;;;13.10;100.00;102063.06;5071999;28;20029;-66
2021/05/25 08:10:35;;;;;;;13.27;2.75;;;;;;;13.11;100.00;102075.72;5071863;28;20035;-66
2021/05/25 08:13:03;;;;;;;9.32;2.20;;;;;;;13.40;100.00;102074.13;5067821;28;20560;-66
2021/05/25 08:15:30;;;;;;;10.02;2.58;;;;;;;13.45;100.00;102072.38;5067835;28;20028;-66
2021/05/25 08:18:11;;;;;;;8.82;2.00;;;;;;;13.37;100.00;102069.94;5069891;28;20036;-65
2021/05/25 08:20:37;;;;;;;10.80;1.90;;;;;;;13.36;100.00;102081.97;5066219;28;20029;-65
2021/05/25 08:23:07;;;;;;;11.57;1.98;;;;;;;13.33;100.00;102078.84;5064474;28;20053;-65
2021/05/25 08:25:34;;;;;;;5.13;2.10;;;;;;;13.38;100.00;102085.34;5070827;28;20055;-63
2021/05/25 08:28:02;;;;;;;8.73;2.17;;;;;;;13.60;100.00;102095.81;5071053;28;20455;-64
2021/05/25 08:30:30;;;;;;;8.35;1.95;;;;;;;13.52;100.00;102081.34;5070525;28;20069;-64
2021/05/25 08:32:56;;;;;;;4.65;1.55;;;;;;;13.54;100.00;102084.72;5071734;28;20040;-64
2021/05/25 08:35:24;;;;;;;7.63;1.85;;;;;;;13.74;100.00;102080.84;5062046;28;20143;-64
2021/05/25 08:37:59;;;;;;;6.22;1.48;;;;;;;13.89;100.00;102100.50;5066348;28;20062;-65
2021/05/25 08:40:27;;;;;;;6.28;1.92;;;;;;;14.11;100.00;102092.56;5071609;28;20071;-68
2021/05/25 08:42:53;;;;;;;7.55;1.55;;;;;;;14.33;100.00;102090.06;5070180;28;20031;-64
2021/05/25 08:45:20;;;;;;;8.68;2.00;;;;;;;14.52;100.00;102094.44;5058485;28;20407;-63
2021/05/25 08:47:47;;;;;;;12.65;2.67;;;;;;;14.37;100.00;102092.09;5051513;28;20048;-64
2021/05/25 08:50:15;;;;;;;8.13;2.20;;;;;;;14.25;100.00;102098.69;5063900;28;20044;-65
2021/05/25 08:52:41;;;;;;;9.82;2.42;;;;;;;14.19;100.00;102112.28;5071361;28;20147;-64
2021/05/25 08:55:08;;;;;;;10.90;2.63;;;;;;;14.21;100.00;102113.94;5071434;28;20127;-64
2021/05/25 08:57:34;;;;;;;8.70;2.33;;;;;;;14.16;100.00;102107.25;5071241;28;20459;-65
2021/05/25 09:00:01;;;;;;;8.30;2.92;;;;;;;14.18;100.00;102110.59;5071481;28;20040;-65
2021/05/25 09:02:26;;;;;;;9.23;2.22;;;;;;;14.25;100.00;102101.44;5071329;28;20051;-64
2021/05/25 09:04:58;;;;;;;7.93;2.25;;;;;;;14.26;100.00;102111.34;5071277;28;20032;-65
2021/05/25 09:07:54;;;;;;;6.20;2.08;;;;;;;14.36;100.00;102106.09;5071345;28;20032;-64
2021/05/25 09:10:22;;;;;;;7.32;1.98;;;;;;;14.48;100.00;102107.00;5070200;28;20044;-65
2021/05/25 09:12:50;;;;;;;9.07;2.20;;;;;;;14.62;100.00;102111.19;5052916;28;20079;-65
2021/05/25 09:15:38;;;;;;;10.55;2.28;;;;;;;14.64;100.00;102109.03;5070658;28;20044;-65
2021/05/25 09:18:09;;;;;;;7.63;2.97;;;;;;;14.70;100.00;102091.56;5071783;28;20524;-64
2021/05/25 09:20:53;;;;;;;10.13;2.70;;;;;;;14.79;100.00;102105.81;5071077;28;20051;-64
2021/05/25 09:23:20;;;;;;;10.32;2.90;;;;;;;14.75;100.00;102105.47;5070936;28;20456;-64
2021/05/25 09:25:51;;;;;;;9.10;3.13;;;;;;;14.66;100.00;102104.13;5071038;28;20398;-65
2021/05/25 09:28:18;;;;;;;10.80;2.13;;;;;;;14.65;100.00;102105.22;5071016;28;20028;-65
2021/05/25 09:30:47;;;;;;;9.00;2.58;;;;;;;14.61;100.00;102106.75;5070166;28;20495;-65
2021/05/25 09:33:13;;;;;;;8.82;1.70;;;;;;;14.44;100.00;102108.53;5070781;28;20032;-64
2021/05/25 09:35:45;;;;;;;11.98;3.05;;;;;;;14.33;100.00;102117.56;5069139;28;20568;-68
2021/05/25 09:38:13;;;;;;;11.90;3.03;;;;;;;14.34;100.00;102111.00;5069942;28;20119;-65
2021/05/25 09:40:44;;;;;;;11.25;2.92;;;;;;;14.37;100.00;102105.00;5070477;28;20025;-66
2021/05/25 09:43:18;;;;;;;7.47;2.72;;;;;;;14.53;100.00;102115.34;5070207;28;20036;-65
2021/05/25 09:45:54;;;;;;;8.60;2.90;;;;;;;14.71;100.00;102115.25;5070801;28;20039;-65
2021/05/25 09:48:25;;;;;;;11.55;2.90;;;;;;;14.77;100.00;102113.47;5070802;28;20116;-66
2021/05/25 09:50:51;;;;;;;8.15;2.05;;;;;;;14.86;100.00;102116.69;5070930;28;20033;-66
2021/05/25 09:53:21;;;;;;;11.95;2.72;;;;;;;14.80;100.00;102112.16;5070643;28;20432;-64
2021/05/25 09:55:53;;;;;;;10.23;2.90;;;;;;;14.96;100.00;102116.94;5070384;28;20078;-65
2021/05/25 09:58:22;;;;;;;12.93;3.30;;;;;;;14.92;100.00;102107.47;5070506;28;20107;-66
2021/05/25 10:00:48;;;;;;;8.35;2.50;;;;;;;14.96;100.00;102111.44;5070618;28;20036;-66
2021/05/25 10:03:16;;;;;;;8.57;2.08;;;;;;;15.15;100.00;102104.69;5070570;28;20089;-66
2021/05/25 10:05:48;;;;;;;11.93;3.10;;;;;;;15.31;100.00;102106.72;5070581;28;20032;-66
2021/05/25 10:08:16;;;;;;;9.20;2.60;;;;;;;15.38;100.00;102092.78;5070696;28;20072;-66
2021/05/25 10:10:43;;;;;;;7.00;2.72;;;;;;;15.33;100.00;102099.03;5070635;28;20128;-66
2021/05/25 10:13:11;;;;;;;10.57;2.83;;;;;;;15.31;100.00;102103.94;5070524;28;20123;-67
2021/05/25 10:15:37;;;;;;;10.43;2.83;;;;;;;15.33;100.00;102101.78;5070462;28;20085;-66
2021/05/25 10:20:32;;;;;;;12.43;3.15;;;;;;;15.08;100.00;102090.22;5070438;28;20029;-66
2021/05/25 10:22:59;;;;;;;13.32;3.42;;;;;;;14.90;100.00;102090.38;5070212;28;20040;-66
2021/05/25 10:25:28;;;;;;;11.35;3.25;;;;;;;14.90;100.00;102095.84;5072185;28;20032;-66
2021/05/25 10:27:53;;;;;;;10.30;3.28;;;;;;;14.99;100.00;102106.28;5074696;28;20032;-66
2021/05/25 10:30:25;;;;;;;13.43;3.30;;;;;;;15.21;100.00;102108.38;5065650;28;20041;-66
2021/05/25 10:33:06;;;;;;;11.77;3.63;;;;;;;15.47;100.00;102112.53;5054416;28;20045;-67
2021/05/25 10:35:54;;;;;;;18.30;3.78;;;;;;;15.36;100.00;102090.28;5054347;28;20040;-66
2021/05/25 10:38:24;;;;;;;6.07;2.53;;;;;;;15.08;100.00;102087.47;5054183;28;20031;-66
2021/05/25 10:40:53;;;;;;;9.20;3.00;;;;;;;15.10;100.00;102096.34;5054146;28;20033;-66
2021/05/25 10:43:48;;;;;;;12.55;3.15;;;;;;;15.08;100.00;102093.81;5054133;28;20033;-66
2021/05/25 10:46:20;;;;;;;13.02;3.53;;;;;;;15.09;100.00;102095.47;5049585;28;20052;-66
2021/05/25 10:49:01;;;;;;;13.27;3.58;;;;;;;15.28;100.00;102104.44;5054133;28;20037;-66
2021/05/25 10:51:45;;;;;;;7.47;2.40;;;;;;;15.29;100.00;102097.84;5053946;28;20491;-66
2021/05/25 10:54:34;;;;;;;12.83;3.20;;;;;;;15.25;100.00;102093.91;5053827;28;20111;-66
2021/05/25 10:57:04;;;;;;;12.93;3.22;;;;;;;15.18;100.00;102103.38;5054067;28;20493;-66
2021/05/25 11:00:00;;;;;;;12.68;2.97;;;;;;;15.12;100.00;102102.44;5053849;28;20552;-66
2021/05/25 11:02:49;;;;;;;10.57;3.35;;;;;;;15.18;100.00;102103.38;5052748;28;20482;-66
2021/05/25 11:05:26;;;;;;;11.25;3.60;;;;;;;15.06;100.00;102108.88;5053838;28;20044;-66
2021/05/25 11:07:55;;;;;;;9.13;3.05;;;;;;;14.99;100.00;102105.44;5053768;28;20083;-66
2021/05/25 11:10:42;;;;;;;12.00;3.88;;;;;;;14.84;100.00;102113.34;5052228;28;20052;-66
2021/05/25 11:13:16;;;;;;;13.60;3.40;;;;;;;14.82;100.00;102110.00;5053634;28;20044;-66
2021/05/25 11:16:03;;;;;;;10.57;3.50;;;;;;;14.88;100.00;102120.03;5085117;28;20060;-66
2021/05/25 11:18:38;;;;;;;14.90;4.00;;;;;;;14.96;100.00;102111.44;5054160;28;20127;-66
2021/05/25 11:23:41;;;;;;;15.20;3.88;;;;;;;14.89;100.00;102118.94;5053203;28;20045;-67